createdAt,value
2022-08-27T00:01:23.904Z,74823.69
2022-08-27T00:03:53.597Z,74817.63
2022-08-27T00:06:21.567Z,74821.66
2022-08-27T00:08:49.872Z,74819.63
2022-08-27T00:11:19.035Z,74817.63
2022-08-27T00:13:46.455Z,74815.59
2022-08-27T00:16:15.695Z,74817.63
2022-08-27T00:18:48.156Z,74815.59
2022-08-27T00:21:17.834Z,74813.56
2022-08-27T00:23:45.101Z,74813.56
2022-08-27T00:26:13.445Z,74813.56
2022-08-27T00:28:42.312Z,74825.72
2022-08-27T00:31:11.332Z,74825.72
2022-08-27T00:33:39.843Z,74825.72
2022-08-27T00:36:07.311Z,74827.75
2022-08-27T00:38:34.904Z,74833.81
2022-08-27T00:41:01.864Z,74837.88
2022-08-27T00:43:45.343Z,74841.94
2022-08-27T00:46:19.420Z,74845.97
2022-08-27T00:48:47.549Z,74841.94
2022-08-27T00:51:14.984Z,74854.09
2022-08-27T00:53:41.937Z,74858.13
2022-08-27T00:56:13.000Z,74854.09
2022-08-27T00:58:42.799Z,74856.09
2022-08-27T01:01:13.135Z,74854.09
2022-08-27T01:03:41.607Z,74854.09
2022-08-27T01:06:16.159Z,74858.13
2022-08-27T01:08:54.992Z,74862.19
2022-08-27T01:11:22.367Z,74860.16
2022-08-27T01:14:00.633Z,74862.19
2022-08-27T01:16:36.944Z,74858.13
2022-08-27T01:19:09.527Z,74858.13
2022-08-27T01:21:46.133Z,74858.13
2022-08-27T01:24:24.167Z,74864.22
2022-08-27T01:26:51.811Z,74862.19
2022-08-27T01:29:19.529Z,74866.25
2022-08-27T01:31:46.497Z,74874.34
2022-08-27T01:34:13.504Z,74874.34
2022-08-27T01:36:40.637Z,74870.28
2022-08-27T01:39:08.149Z,74870.28
2022-08-27T01:41:35.910Z,74870.28
2022-08-27T01:44:04.719Z,74878.41
2022-08-27T01:46:31.642Z,74878.41
2022-08-27T01:48:58.663Z,74878.41
2022-08-27T01:51:25.844Z,74886.50
2022-08-27T01:53:53.005Z,74888.53
2022-08-27T01:56:19.979Z,74890.56
2022-08-27T01:58:47.291Z,74890.56
2022-08-27T02:01:18.431Z,74890.56
2022-08-27T02:03:47.459Z,74894.59
2022-08-27T02:06:14.865Z,74896.63
2022-08-27T02:08:42.131Z,74894.59
2022-08-27T02:11:10.103Z,74898.66
2022-08-27T02:13:37.365Z,74898.66
2022-08-27T02:16:05.387Z,74906.75
2022-08-27T02:18:32.699Z,74906.75
2022-08-27T02:20:59.982Z,74910.81
2022-08-27T02:23:26.886Z,74910.81
2022-08-27T02:25:54.055Z,74918.91
2022-08-27T02:28:21.205Z,74931.06
2022-08-27T02:30:48.111Z,74927.03
2022-08-27T02:33:15.379Z,74937.16
2022-08-27T02:35:44.503Z,74939.19
2022-08-27T02:38:13.364Z,74943.22
2022-08-27T02:40:40.705Z,74943.22
2022-08-27T02:43:08.141Z,74949.31
2022-08-27T02:45:36.889Z,74955.38
2022-08-27T02:48:08.014Z,74959.44
2022-08-27T02:50:35.598Z,74963.50
2022-08-27T02:53:04.623Z,74963.50
2022-08-27T02:55:31.977Z,74971.59
2022-08-27T02:57:59.336Z,74967.53
2022-08-27T03:00:28.745Z,74979.69
2022-08-27T03:02:56.771Z,74973.63
2022-08-27T03:05:24.381Z,74973.63
2022-08-27T03:07:51.305Z,74981.72
2022-08-27T03:10:20.111Z,74987.81
2022-08-27T03:12:48.200Z,74991.84
2022-08-27T03:15:17.611Z,74991.84
2022-08-27T03:18:03.809Z,74999.97
2022-08-27T03:20:31.687Z,75004.00
2022-08-27T03:22:59.715Z,75002.00
2022-08-27T03:25:26.721Z,74999.97
2022-08-27T03:27:53.789Z,75004.00
2022-08-27T03:30:22.371Z,75008.06
2022-08-27T03:32:51.869Z,75010.09
2022-08-27T03:35:20.701Z,75008.06
2022-08-27T03:37:48.105Z,75014.16
2022-08-27T03:40:16.031Z,75014.16
2022-08-27T03:42:43.616Z,75020.22
2022-08-27T03:45:11.767Z,75024.28
2022-08-27T03:47:38.964Z,75024.28
2022-08-27T03:50:07.248Z,75024.28
2022-08-27T03:52:35.863Z,75024.28
2022-08-27T03:55:04.807Z,75024.28
2022-08-27T03:57:32.782Z,75028.31
2022-08-27T04:00:01.516Z,75032.38
2022-08-27T04:02:28.937Z,75028.31
2022-08-27T04:04:57.861Z,75032.38
2022-08-27T04:07:25.128Z,75032.38
2022-08-27T04:09:52.156Z,75032.38
2022-08-27T04:12:19.828Z,75036.44
2022-08-27T04:14:47.039Z,75040.47
2022-08-27T04:17:14.140Z,75036.44
2022-08-27T04:19:41.244Z,75036.44
2022-08-27T04:22:08.610Z,75034.41
2022-08-27T04:24:38.055Z,75024.28
2022-08-27T04:27:06.543Z,75028.31
2022-08-27T04:29:33.578Z,75026.31
2022-08-27T04:32:01.209Z,75020.22
2022-08-27T04:34:29.035Z,75024.28
2022-08-27T04:36:56.943Z,75020.22
2022-08-27T04:39:24.899Z,75014.16
2022-08-27T04:41:56.118Z,75012.13
2022-08-27T04:44:24.438Z,75010.09
2022-08-27T04:46:56.465Z,75004.00
2022-08-27T04:49:24.726Z,75012.13
2022-08-27T04:51:52.127Z,75010.09
2022-08-27T04:54:19.357Z,75008.06
2022-08-27T04:56:53.105Z,75004.00
2022-08-27T04:59:20.087Z,75004.00
2022-08-27T05:01:48.413Z,74987.81
2022-08-27T05:04:18.944Z,74971.59
2022-08-27T05:06:46.574Z,74973.63
2022-08-27T05:09:14.713Z,74963.50
2022-08-27T05:11:42.849Z,74955.38
2022-08-27T05:14:13.743Z,74943.22
2022-08-27T05:16:40.941Z,74935.13
2022-08-27T05:19:11.269Z,74922.97
2022-08-27T05:21:40.931Z,74935.13
2022-08-27T05:24:08.105Z,74929.03
2022-08-27T05:26:37.108Z,74922.97
2022-08-27T05:29:06.245Z,74914.88
2022-08-27T05:31:35.010Z,74916.88
2022-08-27T05:34:03.759Z,74906.75
2022-08-27T05:36:38.418Z,74900.69
2022-08-27T05:39:17.239Z,74894.59
2022-08-27T05:41:44.146Z,74886.50
2022-08-27T05:44:39.678Z,74882.44
2022-08-27T05:46:58.629Z,74874.34
2022-08-27T05:49:26.023Z,74862.19
2022-08-27T05:51:53.043Z,74854.09
2022-08-27T05:54:20.336Z,74845.97
2022-08-27T05:56:50.058Z,74833.81
2022-08-27T05:59:36.620Z,74825.72
2022-08-27T06:02:06.235Z,74813.56
2022-08-27T06:04:33.868Z,74803.44
2022-08-27T06:07:01.053Z,74797.34
2022-08-27T06:09:29.590Z,74797.34
2022-08-27T06:11:58.536Z,74785.19
2022-08-27T06:14:26.573Z,74785.19
2022-08-27T06:16:54.080Z,74781.16
2022-08-27T06:19:21.511Z,74777.09
2022-08-27T06:22:00.823Z,74771.00
2022-08-27T06:24:36.588Z,74756.84
2022-08-27T06:27:03.677Z,74744.69
2022-08-27T06:29:30.726Z,74744.69
2022-08-27T06:31:58.354Z,74736.56
2022-08-27T06:34:25.374Z,74736.56
2022-08-27T06:36:53.778Z,74734.53
2022-08-27T06:39:21.376Z,74730.50
2022-08-27T06:41:50.342Z,74722.38
2022-08-27T06:44:21.582Z,74716.31
2022-08-27T06:46:48.963Z,74704.16
2022-08-27T06:49:16.441Z,74698.06
2022-08-27T06:51:45.834Z,74692.00
2022-08-27T06:54:14.574Z,74683.91
2022-08-27T06:56:42.598Z,74675.78
2022-08-27T06:59:15.099Z,74663.63
2022-08-27T07:01:44.741Z,74663.63
2022-08-27T07:04:17.434Z,74657.56
2022-08-27T07:06:45.448Z,74643.38
2022-08-27T07:09:12.461Z,74635.28
2022-08-27T07:11:39.540Z,74623.13
2022-08-27T07:14:08.298Z,74619.06
2022-08-27T07:16:36.484Z,74606.91
2022-08-27T07:19:05.821Z,74600.84
2022-08-27T07:21:33.937Z,74590.69
2022-08-27T07:24:05.080Z,74586.66
2022-08-27T07:26:35.127Z,74584.63
2022-08-27T07:29:04.454Z,74570.44
2022-08-27T07:31:32.581Z,74562.34
2022-08-27T07:33:59.439Z,74562.34
2022-08-27T07:36:26.733Z,74554.22
2022-08-27T07:39:00.705Z,74552.22
2022-08-27T07:41:32.863Z,74542.09
2022-08-27T07:44:19.273Z,74536.00
2022-08-27T07:46:49.076Z,74517.78
2022-08-27T07:49:18.574Z,74501.56
2022-08-27T07:51:46.622Z,74489.41
2022-08-27T07:54:15.062Z,74475.22
2022-08-27T07:56:42.586Z,74481.31
2022-08-27T07:59:21.814Z,74465.09
2022-08-27T08:01:51.352Z,74452.94
2022-08-27T08:04:20.434Z,74444.84
2022-08-27T08:06:48.836Z,74434.72
2022-08-27T08:09:15.773Z,74424.59
2022-08-27T08:11:42.751Z,74404.31
2022-08-27T08:14:09.834Z,74396.22
2022-08-27T08:16:36.822Z,74384.06
2022-08-27T08:19:03.855Z,74373.94
2022-08-27T08:21:31.035Z,74365.84
2022-08-27T08:23:58.282Z,74359.75
2022-08-27T08:26:25.205Z,74347.59
2022-08-27T08:28:52.396Z,74343.56
2022-08-27T08:31:19.762Z,74335.44
2022-08-27T08:33:48.744Z,74331.41
2022-08-27T08:36:17.955Z,74331.41
2022-08-27T08:38:46.273Z,74327.34
2022-08-27T08:41:33.928Z,74307.09
2022-08-27T08:44:05.818Z,74294.94
2022-08-27T08:46:41.315Z,74290.88
2022-08-27T08:49:30.343Z,74282.78
2022-08-27T08:52:43.056Z,74274.69
2022-08-27T08:55:43.866Z,74268.59
2022-08-27T08:58:35.865Z,74262.53
2022-08-27T09:01:06.316Z,74254.41
2022-08-27T09:03:36.425Z,74242.25
2022-08-27T09:06:10.570Z,74238.22
2022-08-27T09:08:41.783Z,74222.00
2022-08-27T09:11:47.418Z,74205.81
2022-08-27T09:14:40.590Z,74193.66
2022-08-27T09:17:12.501Z,74189.59
2022-08-27T09:19:39.726Z,74181.50
2022-08-27T09:22:42.975Z,74177.44
2022-08-27T09:25:36.007Z,74167.31
2022-08-27T09:28:34.061Z,74157.19
2022-08-27T09:31:10.018Z,74134.91
2022-08-27T09:33:53.587Z,74124.78
2022-08-27T09:36:24.698Z,74112.63
2022-08-27T09:38:58.827Z,74104.50
2022-08-27T09:41:31.988Z,74100.47
2022-08-27T09:44:03.646Z,74098.44
2022-08-27T09:46:31.349Z,74088.31
2022-08-27T09:48:58.342Z,74084.25
2022-08-27T09:51:29.711Z,74080.22
2022-08-27T09:54:00.009Z,74066.03
2022-08-27T09:56:31.441Z,74051.84
2022-08-27T09:59:25.274Z,74039.69
2022-08-27T10:01:55.590Z,74027.53
2022-08-27T10:04:51.280Z,74007.28
2022-08-27T10:07:22.517Z,74007.28
2022-08-27T10:10:15.972Z,74003.25
2022-08-27T10:12:58.569Z,73995.13
2022-08-27T10:15:43.196Z,73999.19
2022-08-27T10:18:24.828Z,73978.94
2022-08-27T10:20:55.068Z,73966.78
2022-08-27T10:23:33.529Z,73954.63
2022-08-27T10:26:15.408Z,73958.69
2022-08-27T10:28:52.626Z,73950.56
2022-08-27T10:31:28.170Z,73944.50
2022-08-27T10:34:07.293Z,73934.38
2022-08-27T10:37:07.441Z,73930.31
2022-08-27T10:40:08.121Z,73934.38
2022-08-27T10:43:06.545Z,73914.13
2022-08-27T10:45:46.225Z,73903.97
2022-08-27T10:48:33.646Z,73897.91
2022-08-27T10:51:18.962Z,73885.75
2022-08-27T10:54:18.487Z,73877.66
2022-08-27T10:57:26.115Z,73861.44
2022-08-27T11:00:10.790Z,73847.28
2022-08-27T11:02:42.193Z,73841.19
2022-08-27T11:05:20.467Z,73831.06
2022-08-27T11:07:53.612Z,73829.03
2022-08-27T11:10:28.368Z,73820.94
2022-08-27T11:13:00.070Z,73808.78
2022-08-27T11:15:33.078Z,73806.75
2022-08-27T11:18:06.034Z,73794.59
2022-08-27T11:20:51.039Z,73776.38
2022-08-27T11:23:24.252Z,73772.31
2022-08-27T11:26:02.650Z,73772.31
2022-08-27T11:28:45.184Z,73780.44
2022-08-27T11:31:21.407Z,73780.44
2022-08-27T11:34:02.614Z,73774.34
2022-08-27T11:36:45.663Z,73762.19
2022-08-27T11:39:34.846Z,73739.91
2022-08-27T11:42:34.861Z,73731.81
2022-08-27T11:45:16.775Z,73715.63
2022-08-27T11:47:58.820Z,73715.63
2022-08-27T11:50:28.785Z,73707.50
2022-08-27T11:53:07.215Z,73703.47
2022-08-27T11:55:38.027Z,73689.28
2022-08-27T11:58:17.798Z,73679.16
2022-08-27T12:00:46.907Z,73679.16
2022-08-27T12:03:20.297Z,73671.06
2022-08-27T12:05:53.533Z,73662.97
2022-08-27T12:08:29.730Z,73658.91
2022-08-27T12:11:08.903Z,73634.59
2022-08-27T12:13:52.935Z,73630.56
2022-08-27T12:16:41.383Z,73634.59
2022-08-27T12:19:34.490Z,73638.66
2022-08-27T12:22:19.339Z,73632.56
2022-08-27T12:24:59.076Z,73634.59
2022-08-27T12:27:36.241Z,73618.41
2022-08-27T12:30:21.968Z,73610.28
2022-08-27T12:32:52.783Z,73610.28
2022-08-27T12:35:27.152Z,73598.16
2022-08-27T12:38:11.343Z,73581.94
2022-08-27T12:40:47.326Z,73569.78
2022-08-27T12:43:24.968Z,73561.69
2022-08-27T12:45:58.419Z,73563.72
2022-08-27T12:48:28.657Z,73553.59
2022-08-27T12:50:59.799Z,73549.53
2022-08-27T12:53:48.064Z,73541.44
2022-08-27T12:56:37.979Z,73533.34
2022-08-27T12:59:50.033Z,73533.34
2022-08-27T13:02:54.788Z,73529.28
2022-08-27T13:05:24.031Z,73525.25
2022-08-27T13:07:53.396Z,73515.09
2022-08-27T13:10:31.513Z,73504.97
2022-08-27T13:13:08.874Z,73504.97
2022-08-27T13:15:36.641Z,73494.84
2022-08-27T13:18:07.770Z,73492.84
2022-08-27T13:20:38.235Z,73496.88
2022-08-27T13:23:17.305Z,73509.03
2022-08-27T13:26:08.735Z,73525.25
2022-08-27T13:28:38.650Z,73533.34
2022-08-27T13:31:07.839Z,73531.31
2022-08-27T13:33:38.908Z,73533.34
2022-08-27T13:36:07.036Z,73549.53
2022-08-27T13:38:38.688Z,73561.69
2022-08-27T13:41:10.540Z,73569.78
2022-08-27T13:43:42.484Z,73575.88
2022-08-27T13:46:13.899Z,73581.94
2022-08-27T13:48:43.382Z,73579.91
2022-08-27T13:51:13.286Z,73602.19
2022-08-27T13:54:05.561Z,73614.34
2022-08-27T13:56:36.472Z,73628.53
2022-08-27T13:59:07.974Z,73630.56
2022-08-27T14:01:37.443Z,73638.66
2022-08-27T14:04:08.934Z,73634.59
2022-08-27T14:06:47.511Z,73614.34
2022-08-27T14:09:27.900Z,73586.00
2022-08-27T14:12:08.186Z,73573.84
2022-08-27T14:14:42.258Z,73569.78
2022-08-27T14:17:29.474Z,73577.88
2022-08-27T14:20:01.385Z,73590.03
2022-08-27T14:22:28.699Z,73594.09
2022-08-27T14:24:55.903Z,73573.84
2022-08-27T14:27:22.953Z,73557.63
2022-08-27T14:29:50.252Z,73541.44
2022-08-27T14:32:19.179Z,73525.25
2022-08-27T14:34:46.760Z,73515.09
2022-08-27T14:37:14.814Z,73509.03
2022-08-27T14:39:43.525Z,73504.97
2022-08-27T14:42:12.632Z,73496.88
2022-08-27T14:44:40.333Z,73484.72
2022-08-27T14:47:09.603Z,73496.88
2022-08-27T14:49:41.584Z,73490.81
2022-08-27T14:52:10.288Z,73511.06
2022-08-27T14:54:37.630Z,73496.88
2022-08-27T14:57:06.719Z,73492.84
2022-08-27T14:59:34.670Z,73492.84
2022-08-27T15:02:05.090Z,73500.94
2022-08-27T15:04:32.460Z,73496.88
2022-08-27T15:07:01.488Z,73496.88
2022-08-27T15:09:31.602Z,73496.88
2022-08-27T15:12:01.285Z,73496.88
2022-08-27T15:14:34.982Z,73500.94
2022-08-27T15:17:02.704Z,73504.97
2022-08-27T15:19:50.007Z,73502.97
2022-08-27T15:22:21.140Z,73504.97
2022-08-27T15:24:50.470Z,73525.25
2022-08-27T15:27:17.527Z,73517.13
2022-08-27T15:29:47.397Z,73513.09
2022-08-27T15:32:21.781Z,73525.25
2022-08-27T15:34:50.741Z,73549.53
2022-08-27T15:37:19.187Z,73594.09
2022-08-27T15:39:46.798Z,73616.38
2022-08-27T15:42:14.380Z,73634.59
2022-08-27T15:44:47.870Z,73642.72
2022-08-27T15:47:19.324Z,73646.75
2022-08-27T15:49:46.629Z,73646.75
2022-08-27T15:52:17.418Z,73652.84
2022-08-27T15:54:44.838Z,73671.06
2022-08-27T15:57:11.822Z,73683.22
2022-08-27T15:59:38.832Z,73693.34
2022-08-27T16:02:08.977Z,73703.47
2022-08-27T16:04:35.795Z,73711.56
2022-08-27T16:07:02.649Z,73727.78
2022-08-27T16:09:29.673Z,73733.84
2022-08-27T16:11:57.339Z,73743.97
2022-08-27T16:14:24.277Z,73754.09
2022-08-27T16:16:51.979Z,73768.28
2022-08-27T16:19:20.650Z,73780.44
2022-08-27T16:21:47.930Z,73792.59
2022-08-27T16:24:17.311Z,73806.75
2022-08-27T16:26:44.821Z,73816.88
2022-08-27T16:29:12.147Z,73820.94
2022-08-27T16:31:39.365Z,73829.03
2022-08-27T16:34:15.442Z,73841.19
2022-08-27T16:36:43.336Z,73841.19
2022-08-27T16:39:11.295Z,73849.28
2022-08-27T16:41:38.647Z,73861.44
2022-08-27T16:44:06.839Z,73871.56
2022-08-27T16:46:35.205Z,73885.75
2022-08-27T16:49:21.013Z,73906.00
2022-08-27T16:51:48.478Z,73914.13
2022-08-27T16:54:16.915Z,73926.25
2022-08-27T16:56:46.347Z,73934.38
2022-08-27T16:59:15.922Z,73950.56
2022-08-27T17:01:43.660Z,73962.72
2022-08-27T17:04:20.316Z,73968.81
2022-08-27T17:06:54.969Z,73982.97
2022-08-27T17:09:23.915Z,73995.13
2022-08-27T17:11:55.194Z,74007.28
2022-08-27T17:14:22.865Z,74019.44
2022-08-27T17:16:50.280Z,74023.50
2022-08-27T17:19:18.790Z,74035.66
2022-08-27T17:21:46.038Z,74045.78
2022-08-27T17:24:13.485Z,74055.91
2022-08-27T17:26:40.478Z,74064.00
2022-08-27T17:29:07.656Z,74080.22
2022-08-27T17:31:37.594Z,74094.38
2022-08-27T17:34:06.467Z,74104.50
2022-08-27T17:36:34.963Z,74128.81
2022-08-27T17:39:03.082Z,74134.91
2022-08-27T17:41:36.911Z,74149.09
2022-08-27T17:44:09.615Z,74165.28
2022-08-27T17:46:36.923Z,74173.38
2022-08-27T17:49:04.898Z,74185.53
2022-08-27T17:51:32.111Z,74205.81
2022-08-27T17:54:01.103Z,74209.84
2022-08-27T17:56:29.642Z,74228.09
2022-08-27T17:58:57.336Z,74240.22
2022-08-27T18:01:32.168Z,74246.31
2022-08-27T18:03:59.800Z,74250.38
2022-08-27T18:06:27.746Z,74256.44
2022-08-27T18:08:55.127Z,74262.53
2022-08-27T18:11:23.388Z,74266.56
2022-08-27T18:13:54.112Z,74274.69
2022-08-27T18:16:21.895Z,74278.72
2022-08-27T18:18:50.524Z,74290.88
2022-08-27T18:21:25.174Z,74294.94
2022-08-27T18:23:54.431Z,74303.03
2022-08-27T18:26:25.752Z,74311.13
2022-08-27T18:28:54.073Z,74323.28
2022-08-27T18:31:29.026Z,74331.41
2022-08-27T18:33:58.740Z,74343.56
2022-08-27T18:36:27.238Z,74351.66
2022-08-27T18:38:55.011Z,74359.75
2022-08-27T18:41:28.530Z,74367.84
2022-08-27T18:43:56.218Z,74367.84
2022-08-27T18:46:23.060Z,74373.94
2022-08-27T18:48:51.647Z,74375.97
2022-08-27T18:51:21.000Z,74380.00
2022-08-27T18:53:49.561Z,74386.09
2022-08-27T18:56:20.720Z,74396.22
2022-08-27T18:58:48.571Z,74394.19
2022-08-27T19:01:20.089Z,74400.28
2022-08-27T19:03:50.058Z,74404.31
2022-08-27T19:06:20.445Z,74408.38
2022-08-27T19:08:49.370Z,74420.53
2022-08-27T19:11:16.729Z,74420.53
2022-08-27T19:13:43.997Z,74424.59
2022-08-27T19:16:32.002Z,74428.63
2022-08-27T19:18:59.183Z,74440.78
2022-08-27T19:21:27.027Z,74452.94
2022-08-27T19:23:54.120Z,74457.00
2022-08-27T19:26:23.564Z,74473.19
2022-08-27T19:28:50.769Z,74481.31
2022-08-27T19:31:17.805Z,74481.31
2022-08-27T19:33:45.199Z,74489.41
2022-08-27T19:36:15.865Z,74497.50
2022-08-27T19:38:44.492Z,74501.56
2022-08-27T19:41:12.371Z,74513.72
2022-08-27T19:43:39.298Z,74511.69
2022-08-27T19:46:13.158Z,74521.81
2022-08-27T19:48:40.322Z,74521.81
2022-08-27T19:51:07.269Z,74525.88
2022-08-27T19:53:35.470Z,74533.97
2022-08-27T19:56:03.540Z,74542.09
2022-08-27T19:58:31.024Z,74542.09
2022-08-27T20:00:57.999Z,74552.22
2022-08-27T20:03:25.381Z,74562.34
2022-08-27T20:05:53.015Z,74566.41
2022-08-27T20:08:19.913Z,74570.44
2022-08-27T20:10:47.151Z,74582.59
2022-08-27T20:13:14.264Z,74586.66
2022-08-27T20:15:41.395Z,74598.81
2022-08-27T20:18:10.048Z,74606.91
2022-08-27T20:20:37.630Z,74610.97
2022-08-27T20:23:05.247Z,74615.00
2022-08-27T20:25:34.248Z,74608.94
2022-08-27T20:28:16.399Z,74615.00
2022-08-27T20:30:49.040Z,74615.00
2022-08-27T20:33:16.741Z,74619.06
2022-08-27T20:35:44.885Z,74623.13
2022-08-27T20:38:12.268Z,74627.16
2022-08-27T20:40:39.339Z,74631.22
2022-08-27T20:43:06.207Z,74643.38
2022-08-27T20:45:33.499Z,74651.47
2022-08-27T20:48:00.965Z,74659.59
2022-08-27T20:50:31.341Z,74661.59
2022-08-27T20:52:58.755Z,74669.72
2022-08-27T20:55:26.001Z,74663.63
2022-08-27T20:58:11.346Z,74671.75
2022-08-27T21:00:41.011Z,74675.78
2022-08-27T21:03:10.309Z,74683.91
2022-08-27T21:05:37.579Z,74685.91
2022-08-27T21:08:06.361Z,74692.00
2022-08-27T21:10:34.281Z,74696.06
2022-08-27T21:13:04.489Z,74704.16
2022-08-27T21:15:32.633Z,74700.09
2022-08-27T21:17:59.648Z,74706.19
2022-08-27T21:20:26.581Z,74710.22
2022-08-27T21:22:56.041Z,74712.25
2022-08-27T21:25:25.202Z,74716.31
2022-08-27T21:27:53.157Z,74722.38
2022-08-27T21:30:21.512Z,74724.41
2022-08-27T21:32:49.062Z,74720.38
2022-08-27T21:35:16.383Z,74732.53
2022-08-27T21:37:43.796Z,74728.47
2022-08-27T21:40:11.173Z,74740.63
2022-08-27T21:42:38.306Z,74732.53
2022-08-27T21:45:06.176Z,74740.63
2022-08-27T21:47:33.130Z,74740.63
2022-08-27T21:50:00.220Z,74740.63
2022-08-27T21:52:27.477Z,74740.63
2022-08-27T21:54:54.397Z,74740.63
2022-08-27T21:57:21.339Z,74732.53
2022-08-27T21:59:50.360Z,74720.38
2022-08-27T22:05:07.996Z,74724.41
2022-08-27T22:07:35.110Z,74724.41
2022-08-27T22:10:02.616Z,74720.38
2022-08-27T22:12:32.515Z,74712.25
2022-08-27T22:15:01.181Z,74716.31
2022-08-27T22:17:28.660Z,74712.25
2022-08-27T22:19:58.263Z,74714.28
2022-08-27T22:22:30.756Z,74728.47
2022-08-27T22:24:59.499Z,74732.53
2022-08-27T22:27:26.922Z,74734.53
2022-08-27T22:29:54.817Z,74740.63
2022-08-27T22:32:22.697Z,74738.59
2022-08-27T22:34:49.771Z,74736.56
2022-08-27T22:37:18.754Z,74740.63
2022-08-27T22:39:48.596Z,74740.63
2022-08-27T22:42:17.821Z,74744.69
2022-08-27T22:44:47.023Z,74748.72
2022-08-27T22:47:16.492Z,74748.72
2022-08-27T22:49:44.506Z,74752.78
2022-08-27T22:52:12.975Z,74754.81
2022-08-27T22:54:41.099Z,74760.88
2022-08-27T22:57:10.554Z,74764.94
2022-08-27T22:59:39.135Z,74773.03
2022-08-27T23:02:09.444Z,74777.09
2022-08-27T23:04:53.976Z,74785.19
2022-08-27T23:07:22.785Z,74785.19
2022-08-27T23:09:52.808Z,74797.34
2022-08-27T23:12:20.535Z,74793.31
2022-08-27T23:14:47.883Z,74797.34
2022-08-27T23:17:18.651Z,74797.34
2022-08-27T23:19:50.034Z,74811.53
2022-08-27T23:22:19.896Z,74809.50
2022-08-27T23:25:08.086Z,74813.56
2022-08-27T23:27:35.585Z,74819.63
2022-08-27T23:30:04.468Z,74817.63
2022-08-27T23:32:33.989Z,74809.50
2022-08-27T23:35:02.454Z,74805.47
2022-08-27T23:37:30.512Z,74803.44
2022-08-27T23:39:58.161Z,74801.41
2022-08-27T23:42:25.475Z,74801.41
2022-08-27T23:44:52.657Z,74797.34
2022-08-27T23:47:20.406Z,74801.41
2022-08-27T23:49:48.600Z,74793.31
2022-08-27T23:52:17.150Z,74793.31
2022-08-27T23:54:44.994Z,74797.34
2022-08-27T23:57:12.070Z,74799.38
2022-08-27T23:59:39.144Z,74793.31
